sensor_id;sensor_type;location;lat;lon;timestamp;temperature;humidity
84807;DHT22;75042;43.504;3.714;2024-01-30T00:00:59;9.80;99.90
84807;DHT22;75042;43.504;3.714;2024-01-30T00:03:24;9.80;99.90
84807;DHT22;75042;43.504;3.714;2024-01-30T00:05:50;9.90;99.90
84807;DHT22;75042;43.504;3.714;2024-01-30T00:08:15;9.80;99.90
84807;DHT22;75042;43.504;3.714;2024-01-30T00:10:41;9.80;99.90
84807;DHT22;75042;43.504;3.714;2024-01-30T00:13:06;9.80;99.90
84807;DHT22;75042;43.504;3.714;2024-01-30T00:15:32;9.80;99.90
84807;DHT22;75042;43.504;3.714;2024-01-30T00:17:58;9.80;99.90
84807;DHT22;75042;43.504;3.714;2024-01-30T00:20:23;9.80;99.90
84807;DHT22;75042;43.504;3.714;2024-01-30T00:22:49;9.80;99.90
84807;DHT22;75042;43.504;3.714;2024-01-30T00:25:14;9.80;99.90
84807;DHT22;75042;43.504;3.714;2024-01-30T00:27:40;9.80;99.90
84807;DHT22;75042;43.504;3.714;2024-01-30T00:30:05;9.80;99.90
84807;DHT22;75042;43.504;3.714;2024-01-30T00:32:32;9.80;99.90
84807;DHT22;75042;43.504;3.714;2024-01-30T00:34:57;9.80;99.90
84807;DHT22;75042;43.504;3.714;2024-01-30T00:37:23;9.80;99.90
84807;DHT22;75042;43.504;3.714;2024-01-30T00:39:48;9.90;99.90
84807;DHT22;75042;43.504;3.714;2024-01-30T00:42:14;9.90;99.90
84807;DHT22;75042;43.504;3.714;2024-01-30T00:44:40;9.90;99.90
84807;DHT22;75042;43.504;3.714;2024-01-30T00:47:06;9.90;99.90
84807;DHT22;75042;43.504;3.714;2024-01-30T00:49:31;9.90;99.90
84807;DHT22;75042;43.504;3.714;2024-01-30T00:51:57;9.90;99.90
84807;DHT22;75042;43.504;3.714;2024-01-30T00:54:22;9.90;99.90
84807;DHT22;75042;43.504;3.714;2024-01-30T00:56:48;9.90;99.90
84807;DHT22;75042;43.504;3.714;2024-01-30T00:59:13;10.00;99.90
84807;DHT22;75042;43.504;3.714;2024-01-30T01:01:39;9.90;99.90
84807;DHT22;75042;43.504;3.714;2024-01-30T01:04:04;10.00;99.90
84807;DHT22;75042;43.504;3.714;2024-01-30T01:06:30;10.00;99.90
84807;DHT22;75042;43.504;3.714;2024-01-30T01:08:55;10.00;99.90
84807;DHT22;75042;43.504;3.714;2024-01-30T01:11:21;9.90;99.90
84807;DHT22;75042;43.504;3.714;2024-01-30T01:13:47;9.90;99.90
84807;DHT22;75042;43.504;3.714;2024-01-30T01:16:13;9.90;99.90
84807;DHT22;75042;43.504;3.714;2024-01-30T01:18:38;9.90;99.90
84807;DHT22;75042;43.504;3.714;2024-01-30T01:21:04;9.90;99.90
84807;DHT22;75042;43.504;3.714;2024-01-30T01:23:30;10.00;99.90
84807;DHT22;75042;43.504;3.714;2024-01-30T01:25:55;10.00;99.90
84807;DHT22;75042;43.504;3.714;2024-01-30T01:28:21;10.00;99.90
84807;DHT22;75042;43.504;3.714;2024-01-30T01:30:46;10.00;99.90
84807;DHT22;75042;43.504;3.714;2024-01-30T01:33:12;10.00;99.90
84807;DHT22;75042;43.504;3.714;2024-01-30T01:35:39;10.10;99.90
84807;DHT22;75042;43.504;3.714;2024-01-30T01:38:05;10.20;99.90
84807;DHT22;75042;43.504;3.714;2024-01-30T01:40:30;10.40;99.90
84807;DHT22;75042;43.504;3.714;2024-01-30T01:42:56;10.60;99.90
84807;DHT22;75042;43.504;3.714;2024-01-30T01:45:22;10.60;99.90
84807;DHT22;75042;43.504;3.714;2024-01-30T01:47:49;10.60;99.90
84807;DHT22;75042;43.504;3.714;2024-01-30T01:50:16;10.60;99.90
84807;DHT22;75042;43.504;3.714;2024-01-30T01:52:44;10.60;99.90
84807;DHT22;75042;43.504;3.714;2024-01-30T01:55:11;10.60;99.90
84807;DHT22;75042;43.504;3.714;2024-01-30T01:57:37;10.60;99.90
84807;DHT22;75042;43.504;3.714;2024-01-30T02:00:03;10.50;99.90
84807;DHT22;75042;43.504;3.714;2024-01-30T02:02:30;10.50;99.90
84807;DHT22;75042;43.504;3.714;2024-01-30T02:04:57;10.50;99.90
84807;DHT22;75042;43.504;3.714;2024-01-30T02:07:22;10.40;99.90
84807;DHT22;75042;43.504;3.714;2024-01-30T02:09:48;10.40;99.90
84807;DHT22;75042;43.504;3.714;2024-01-30T02:12:13;10.40;99.90
84807;DHT22;75042;43.504;3.714;2024-01-30T02:14:45;10.40;99.90
84807;DHT22;75042;43.504;3.714;2024-01-30T02:17:11;10.30;99.90
84807;DHT22;75042;43.504;3.714;2024-01-30T02:19:37;10.40;99.90
84807;DHT22;75042;43.504;3.714;2024-01-30T02:22:03;10.40;99.90
84807;DHT22;75042;43.504;3.714;2024-01-30T02:24:28;10.40;99.90
84807;DHT22;75042;43.504;3.714;2024-01-30T02:26:54;10.40;99.90
84807;DHT22;75042;43.504;3.714;2024-01-30T02:29:19;10.40;99.90
84807;DHT22;75042;43.504;3.714;2024-01-30T02:31:45;10.40;99.90
84807;DHT22;75042;43.504;3.714;2024-01-30T02:34:11;10.40;99.90
84807;DHT22;75042;43.504;3.714;2024-01-30T02:36:36;10.30;99.90
84807;DHT22;75042;43.504;3.714;2024-01-30T02:39:02;10.30;99.90
84807;DHT22;75042;43.504;3.714;2024-01-30T02:41:28;10.30;99.90
84807;DHT22;75042;43.504;3.714;2024-01-30T02:43:53;10.30;99.90
84807;DHT22;75042;43.504;3.714;2024-01-30T02:46:19;10.20;99.90
84807;DHT22;75042;43.504;3.714;2024-01-30T02:48:44;10.20;99.90
84807;DHT22;75042;43.504;3.714;2024-01-30T02:51:10;10.10;99.90
84807;DHT22;75042;43.504;3.714;2024-01-30T02:53:35;10.10;99.90
84807;DHT22;75042;43.504;3.714;2024-01-30T02:56:02;10.00;99.90
84807;DHT22;75042;43.504;3.714;2024-01-30T02:58:27;10.00;99.90
84807;DHT22;75042;43.504;3.714;2024-01-30T03:00:53;9.90;99.90
84807;DHT22;75042;43.504;3.714;2024-01-30T03:03:18;9.90;99.90
84807;DHT22;75042;43.504;3.714;2024-01-30T03:05:44;9.90;99.90
84807;DHT22;75042;43.504;3.714;2024-01-30T03:08:09;9.90;99.90
84807;DHT22;75042;43.504;3.714;2024-01-30T03:10:35;9.80;99.90
84807;DHT22;75042;43.504;3.714;2024-01-30T03:13:01;9.80;99.90
84807;DHT22;75042;43.504;3.714;2024-01-30T03:15:26;9.70;99.90
84807;DHT22;75042;43.504;3.714;2024-01-30T03:17:53;9.60;99.90
84807;DHT22;75042;43.504;3.714;2024-01-30T03:20:18;9.60;99.90
84807;DHT22;75042;43.504;3.714;2024-01-30T03:22:44;9.60;99.90
84807;DHT22;75042;43.504;3.714;2024-01-30T03:25:10;9.60;99.90
84807;DHT22;75042;43.504;3.714;2024-01-30T03:27:35;9.60;99.90
84807;DHT22;75042;43.504;3.714;2024-01-30T03:30:01;9.60;99.90
84807;DHT22;75042;43.504;3.714;2024-01-30T03:32:27;9.50;99.90
84807;DHT22;75042;43.504;3.714;2024-01-30T03:34:53;9.40;99.90
84807;DHT22;75042;43.504;3.714;2024-01-30T03:37:19;9.40;99.90
84807;DHT22;75042;43.504;3.714;2024-01-30T03:39:44;9.40;99.90
84807;DHT22;75042;43.504;3.714;2024-01-30T03:42:10;9.30;99.90
84807;DHT22;75042;43.504;3.714;2024-01-30T03:44:35;9.30;99.90
84807;DHT22;75042;43.504;3.714;2024-01-30T03:47:01;9.30;99.90
84807;DHT22;75042;43.504;3.714;2024-01-30T03:49:26;9.20;99.90
84807;DHT22;75042;43.504;3.714;2024-01-30T03:51:52;9.20;99.90
84807;DHT22;75042;43.504;3.714;2024-01-30T03:54:17;9.20;99.90
84807;DHT22;75042;43.504;3.714;2024-01-30T03:56:43;9.10;99.90
84807;DHT22;75042;43.504;3.714;2024-01-30T03:59:08;9.10;99.90
84807;DHT22;75042;43.504;3.714;2024-01-30T04:01:34;9.10;99.90
84807;DHT22;75042;43.504;3.714;2024-01-30T04:03:59;9.10;99.90
84807;DHT22;75042;43.504;3.714;2024-01-30T04:06:25;9.10;99.90
84807;DHT22;75042;43.504;3.714;2024-01-30T04:08:51;9.10;99.90
84807;DHT22;75042;43.504;3.714;2024-01-30T04:11:18;9.00;99.90
84807;DHT22;75042;43.504;3.714;2024-01-30T04:13:43;9.00;99.90
84807;DHT22;75042;43.504;3.714;2024-01-30T04:16:18;9.00;99.90
84807;DHT22;75042;43.504;3.714;2024-01-30T04:18:44;9.00;99.90
84807;DHT22;75042;43.504;3.714;2024-01-30T04:21:09;9.00;99.90
84807;DHT22;75042;43.504;3.714;2024-01-30T04:23:35;9.00;99.90
84807;DHT22;75042;43.504;3.714;2024-01-30T04:26:00;9.00;99.90
84807;DHT22;75042;43.504;3.714;2024-01-30T04:28:26;8.90;99.90
84807;DHT22;75042;43.504;3.714;2024-01-30T04:30:51;8.90;99.90
84807;DHT22;75042;43.504;3.714;2024-01-30T04:33:17;8.90;99.90
84807;DHT22;75042;43.504;3.714;2024-01-30T04:35:43;8.90;99.90
84807;DHT22;75042;43.504;3.714;2024-01-30T04:38:09;8.90;99.90
84807;DHT22;75042;43.504;3.714;2024-01-30T04:40:34;8.90;99.90
84807;DHT22;75042;43.504;3.714;2024-01-30T04:43:00;9.00;99.90
84807;DHT22;75042;43.504;3.714;2024-01-30T04:45:25;8.90;99.90
84807;DHT22;75042;43.504;3.714;2024-01-30T04:47:51;8.90;99.90
84807;DHT22;75042;43.504;3.714;2024-01-30T04:50:16;8.90;99.90
84807;DHT22;75042;43.504;3.714;2024-01-30T04:52:42;9.00;99.90
84807;DHT22;75042;43.504;3.714;2024-01-30T04:55:07;9.00;99.90
84807;DHT22;75042;43.504;3.714;2024-01-30T04:57:33;9.00;99.90
84807;DHT22;75042;43.504;3.714;2024-01-30T04:59:59;9.00;99.90
84807;DHT22;75042;43.504;3.714;2024-01-30T05:02:24;9.00;99.90
84807;DHT22;75042;43.504;3.714;2024-01-30T05:04:50;9.00;99.90
84807;DHT22;75042;43.504;3.714;2024-01-30T05:07:15;9.00;99.90
84807;DHT22;75042;43.504;3.714;2024-01-30T05:09:41;9.00;99.90
84807;DHT22;75042;43.504;3.714;2024-01-30T05:12:07;9.00;99.90
84807;DHT22;75042;43.504;3.714;2024-01-30T05:14:32;9.00;99.90
84807;DHT22;75042;43.504;3.714;2024-01-30T05:16:58;9.00;99.90
84807;DHT22;75042;43.504;3.714;2024-01-30T05:19:23;9.00;99.90
84807;DHT22;75042;43.504;3.714;2024-01-30T05:21:49;9.10;99.90
84807;DHT22;75042;43.504;3.714;2024-01-30T05:24:15;9.10;99.90
84807;DHT22;75042;43.504;3.714;2024-01-30T05:26:40;9.10;99.90
84807;DHT22;75042;43.504;3.714;2024-01-30T05:29:06;9.10;99.90
84807;DHT22;75042;43.504;3.714;2024-01-30T05:31:33;9.10;99.90
84807;DHT22;75042;43.504;3.714;2024-01-30T05:33:59;9.10;99.90
84807;DHT22;75042;43.504;3.714;2024-01-30T05:36:25;9.00;99.90
84807;DHT22;75042;43.504;3.714;2024-01-30T05:38:50;9.00;99.90
84807;DHT22;75042;43.504;3.714;2024-01-30T05:41:16;9.00;99.90
84807;DHT22;75042;43.504;3.714;2024-01-30T05:43:42;9.00;99.90
84807;DHT22;75042;43.504;3.714;2024-01-30T05:46:07;9.10;99.90
84807;DHT22;75042;43.504;3.714;2024-01-30T05:48:33;9.00;99.90
84807;DHT22;75042;43.504;3.714;2024-01-30T05:51:00;9.00;99.90
84807;DHT22;75042;43.504;3.714;2024-01-30T05:53:26;9.00;99.90
84807;DHT22;75042;43.504;3.714;2024-01-30T05:55:52;9.00;99.90
84807;DHT22;75042;43.504;3.714;2024-01-30T05:58:17;9.00;99.90
84807;DHT22;75042;43.504;3.714;2024-01-30T06:00:43;9.00;99.90
84807;DHT22;75042;43.504;3.714;2024-01-30T06:03:08;9.00;99.90
84807;DHT22;75042;43.504;3.714;2024-01-30T06:05:34;9.00;99.90
84807;DHT22;75042;43.504;3.714;2024-01-30T06:07:59;9.00;99.90
84807;DHT22;75042;43.504;3.714;2024-01-30T06:10:25;9.00;99.90
84807;DHT22;75042;43.504;3.714;2024-01-30T06:12:50;9.00;99.90
84807;DHT22;75042;43.504;3.714;2024-01-30T06:15:16;8.90;99.90
84807;DHT22;75042;43.504;3.714;2024-01-30T06:17:41;8.90;99.90
84807;DHT22;75042;43.504;3.714;2024-01-30T06:20:07;8.90;99.90
84807;DHT22;75042;43.504;3.714;2024-01-30T06:22:32;8.90;99.90
84807;DHT22;75042;43.504;3.714;2024-01-30T06:24:58;8.90;99.90
84807;DHT22;75042;43.504;3.714;2024-01-30T06:27:24;8.80;99.90
84807;DHT22;75042;43.504;3.714;2024-01-30T06:29:49;8.90;99.90
84807;DHT22;75042;43.504;3.714;2024-01-30T06:32:15;8.80;99.90
84807;DHT22;75042;43.504;3.714;2024-01-30T06:34:40;8.80;99.90
84807;DHT22;75042;43.504;3.714;2024-01-30T06:37:06;8.80;99.90
84807;DHT22;75042;43.504;3.714;2024-01-30T06:39:31;8.80;99.90
84807;DHT22;75042;43.504;3.714;2024-01-30T06:41:57;8.80;99.90
84807;DHT22;75042;43.504;3.714;2024-01-30T06:44:23;8.80;99.90
84807;DHT22;75042;43.504;3.714;2024-01-30T06:46:48;8.80;99.90
84807;DHT22;75042;43.504;3.714;2024-01-30T06:49:14;8.70;99.90
84807;DHT22;75042;43.504;3.714;2024-01-30T06:51:39;8.70;99.90
84807;DHT22;75042;43.504;3.714;2024-01-30T06:54:05;8.60;99.90
84807;DHT22;75042;43.504;3.714;2024-01-30T06:56:30;8.50;99.90
84807;DHT22;75042;43.504;3.714;2024-01-30T06:58:56;8.50;99.90
84807;DHT22;75042;43.504;3.714;2024-01-30T07:01:29;8.40;99.90
84807;DHT22;75042;43.504;3.714;2024-01-30T07:03:55;8.40;99.90
84807;DHT22;75042;43.504;3.714;2024-01-30T07:06:20;8.30;99.90
84807;DHT22;75042;43.504;3.714;2024-01-30T07:08:47;8.30;99.90
84807;DHT22;75042;43.504;3.714;2024-01-30T07:11:22;8.20;99.90
84807;DHT22;75042;43.504;3.714;2024-01-30T07:13:50;8.20;99.90
84807;DHT22;75042;43.504;3.714;2024-01-30T07:16:15;8.20;99.90
84807;DHT22;75042;43.504;3.714;2024-01-30T07:18:41;8.20;99.90
84807;DHT22;75042;43.504;3.714;2024-01-30T07:21:06;8.20;99.90
84807;DHT22;75042;43.504;3.714;2024-01-30T07:23:32;8.30;99.90
84807;DHT22;75042;43.504;3.714;2024-01-30T07:25:59;8.30;99.90
84807;DHT22;75042;43.504;3.714;2024-01-30T07:28:25;8.30;99.90
84807;DHT22;75042;43.504;3.714;2024-01-30T07:30:50;8.30;99.90
84807;DHT22;75042;43.504;3.714;2024-01-30T07:33:16;8.30;99.90
84807;DHT22;75042;43.504;3.714;2024-01-30T07:35:41;8.30;99.90
84807;DHT22;75042;43.504;3.714;2024-01-30T07:38:07;8.30;99.90
84807;DHT22;75042;43.504;3.714;2024-01-30T07:40:32;8.40;99.90
84807;DHT22;75042;43.504;3.714;2024-01-30T07:42:58;8.40;99.90
84807;DHT22;75042;43.504;3.714;2024-01-30T07:45:24;8.50;99.90
84807;DHT22;75042;43.504;3.714;2024-01-30T07:47:51;8.50;99.90
84807;DHT22;75042;43.504;3.714;2024-01-30T07:50:17;8.60;99.90
84807;DHT22;75042;43.504;3.714;2024-01-30T07:52:42;8.60;99.90
84807;DHT22;75042;43.504;3.714;2024-01-30T07:55:08;8.60;99.90
84807;DHT22;75042;43.504;3.714;2024-01-30T07:57:34;8.60;99.90
84807;DHT22;75042;43.504;3.714;2024-01-30T08:00:00;8.60;99.90
84807;DHT22;75042;43.504;3.714;2024-01-30T08:02:25;8.60;99.90
84807;DHT22;75042;43.504;3.714;2024-01-30T08:04:51;8.60;99.90
84807;DHT22;75042;43.504;3.714;2024-01-30T08:07:16;8.70;99.90
84807;DHT22;75042;43.504;3.714;2024-01-30T08:09:43;8.70;99.90
84807;DHT22;75042;43.504;3.714;2024-01-30T08:12:08;8.70;99.90
84807;DHT22;75042;43.504;3.714;2024-01-30T08:14:34;8.70;99.90
84807;DHT22;75042;43.504;3.714;2024-01-30T08:16:59;8.70;99.90
84807;DHT22;75042;43.504;3.714;2024-01-30T08:19:25;8.80;99.90
84807;DHT22;75042;43.504;3.714;2024-01-30T08:21:50;8.70;99.90
84807;DHT22;75042;43.504;3.714;2024-01-30T08:24:16;8.70;99.90
84807;DHT22;75042;43.504;3.714;2024-01-30T08:26:42;8.70;99.90
84807;DHT22;75042;43.504;3.714;2024-01-30T08:29:07;8.70;99.90
84807;DHT22;75042;43.504;3.714;2024-01-30T08:31:33;8.70;99.90
84807;DHT22;75042;43.504;3.714;2024-01-30T08:33:58;8.70;99.90
84807;DHT22;75042;43.504;3.714;2024-01-30T08:36:24;8.80;99.90
84807;DHT22;75042;43.504;3.714;2024-01-30T08:38:50;8.90;99.90
84807;DHT22;75042;43.504;3.714;2024-01-30T08:41:15;9.10;99.60
84807;DHT22;75042;43.504;3.714;2024-01-30T08:43:41;9.20;98.50
84807;DHT22;75042;43.504;3.714;2024-01-30T08:46:06;9.40;98.30
84807;DHT22;75042;43.504;3.714;2024-01-30T08:48:32;9.60;96.60
84807;DHT22;75042;43.504;3.714;2024-01-30T08:50:57;9.80;95.80
84807;DHT22;75042;43.504;3.714;2024-01-30T08:53:23;9.90;94.80
84807;DHT22;75042;43.504;3.714;2024-01-30T08:55:48;9.80;94.00
84807;DHT22;75042;43.504;3.714;2024-01-30T08:58:14;9.80;92.70
84807;DHT22;75042;43.504;3.714;2024-01-30T09:00:40;9.90;93.10
84807;DHT22;75042;43.504;3.714;2024-01-30T09:03:06;9.90;92.00
84807;DHT22;75042;43.504;3.714;2024-01-30T09:05:32;9.90;91.50
84807;DHT22;75042;43.504;3.714;2024-01-30T09:07:57;9.80;91.30
84807;DHT22;75042;43.504;3.714;2024-01-30T09:10:23;9.80;90.80
84807;DHT22;75042;43.504;3.714;2024-01-30T09:12:48;9.80;91.00
84807;DHT22;75042;43.504;3.714;2024-01-30T09:15:14;9.80;90.70
84807;DHT22;75042;43.504;3.714;2024-01-30T09:17:40;9.90;91.10
84807;DHT22;75042;43.504;3.714;2024-01-30T09:20:05;9.90;90.10
84807;DHT22;75042;43.504;3.714;2024-01-30T09:22:31;9.90;90.90
84807;DHT22;75042;43.504;3.714;2024-01-30T09:27:34;9.90;90.50
84807;DHT22;75042;43.504;3.714;2024-01-30T09:29:59;10.00;90.00
84807;DHT22;75042;43.504;3.714;2024-01-30T09:32:25;9.90;89.60
84807;DHT22;75042;43.504;3.714;2024-01-30T09:34:50;10.00;90.20
84807;DHT22;75042;43.504;3.714;2024-01-30T09:37:16;10.20;89.80
84807;DHT22;75042;43.504;3.714;2024-01-30T09:39:43;10.20;89.00
84807;DHT22;75042;43.504;3.714;2024-01-30T09:42:19;10.20;89.00
84807;DHT22;75042;43.504;3.714;2024-01-30T09:44:46;10.20;89.10
84807;DHT22;75042;43.504;3.714;2024-01-30T09:47:12;10.30;88.20
84807;DHT22;75042;43.504;3.714;2024-01-30T09:49:38;10.40;87.90
84807;DHT22;75042;43.504;3.714;2024-01-30T09:52:05;10.50;87.90
84807;DHT22;75042;43.504;3.714;2024-01-30T09:54:31;10.60;87.50
84807;DHT22;75042;43.504;3.714;2024-01-30T09:56:57;10.70;87.10
84807;DHT22;75042;43.504;3.714;2024-01-30T09:59:23;11.00;86.40
84807;DHT22;75042;43.504;3.714;2024-01-30T10:01:49;11.60;84.30
84807;DHT22;75042;43.504;3.714;2024-01-30T10:04:15;12.10;80.40
84807;DHT22;75042;43.504;3.714;2024-01-30T10:06:40;11.90;81.20
84807;DHT22;75042;43.504;3.714;2024-01-30T10:09:07;11.80;82.30
84807;DHT22;75042;43.504;3.714;2024-01-30T10:11:33;11.80;82.30
84807;DHT22;75042;43.504;3.714;2024-01-30T10:14:00;11.70;83.50
84807;DHT22;75042;43.504;3.714;2024-01-30T10:16:25;11.60;84.50
84807;DHT22;75042;43.504;3.714;2024-01-30T10:18:51;11.60;84.40
84807;DHT22;75042;43.504;3.714;2024-01-30T10:21:16;11.50;84.70
84807;DHT22;75042;43.504;3.714;2024-01-30T10:23:43;11.50;85.40
84807;DHT22;75042;43.504;3.714;2024-01-30T10:26:08;11.50;85.80
84807;DHT22;75042;43.504;3.714;2024-01-30T10:28:34;11.50;85.60
84807;DHT22;75042;43.504;3.714;2024-01-30T10:30:59;11.50;86.30
84807;DHT22;75042;43.504;3.714;2024-01-30T10:33:26;11.50;85.80
84807;DHT22;75042;43.504;3.714;2024-01-30T10:35:54;11.60;86.10
84807;DHT22;75042;43.504;3.714;2024-01-30T10:38:20;11.60;86.20
84807;DHT22;75042;43.504;3.714;2024-01-30T10:40:46;11.70;85.30
84807;DHT22;75042;43.504;3.714;2024-01-30T10:43:13;11.80;85.10
84807;DHT22;75042;43.504;3.714;2024-01-30T10:45:40;11.90;84.60
84807;DHT22;75042;43.504;3.714;2024-01-30T10:48:10;12.10;84.40
84807;DHT22;75042;43.504;3.714;2024-01-30T10:50:36;12.20;83.60
84807;DHT22;75042;43.504;3.714;2024-01-30T10:53:02;12.70;82.20
84807;DHT22;75042;43.504;3.714;2024-01-30T10:55:28;13.00;80.80
84807;DHT22;75042;43.504;3.714;2024-01-30T10:57:54;12.90;80.30
84807;DHT22;75042;43.504;3.714;2024-01-30T11:00:20;12.90;81.80
84807;DHT22;75042;43.504;3.714;2024-01-30T11:02:49;12.50;83.80
84807;DHT22;75042;43.504;3.714;2024-01-30T11:05:15;12.50;84.40
84807;DHT22;75042;43.504;3.714;2024-01-30T11:07:48;12.50;85.10
84807;DHT22;75042;43.504;3.714;2024-01-30T11:10:14;12.40;86.00
84807;DHT22;75042;43.504;3.714;2024-01-30T11:12:40;12.40;85.60
84807;DHT22;75042;43.504;3.714;2024-01-30T11:15:06;12.30;86.40
84807;DHT22;75042;43.504;3.714;2024-01-30T11:17:45;12.20;86.70
84807;DHT22;75042;43.504;3.714;2024-01-30T11:20:15;12.30;86.10
84807;DHT22;75042;43.504;3.714;2024-01-30T11:22:44;12.20;86.60
84807;DHT22;75042;43.504;3.714;2024-01-30T11:25:13;12.10;87.30
84807;DHT22;75042;43.504;3.714;2024-01-30T11:27:39;12.00;87.60
84807;DHT22;75042;43.504;3.714;2024-01-30T11:30:05;12.10;87.80
84807;DHT22;75042;43.504;3.714;2024-01-30T11:32:31;12.30;87.30
84807;DHT22;75042;43.504;3.714;2024-01-30T11:34:56;12.20;86.20
84807;DHT22;75042;43.504;3.714;2024-01-30T11:37:24;12.10;87.00
84807;DHT22;75042;43.504;3.714;2024-01-30T11:39:50;12.20;87.70
84807;DHT22;75042;43.504;3.714;2024-01-30T11:42:16;12.40;86.60
84807;DHT22;75042;43.504;3.714;2024-01-30T11:44:46;12.50;86.10
84807;DHT22;75042;43.504;3.714;2024-01-30T11:47:11;12.50;86.30
84807;DHT22;75042;43.504;3.714;2024-01-30T11:49:37;12.50;86.00
84807;DHT22;75042;43.504;3.714;2024-01-30T11:52:03;12.60;85.40
84807;DHT22;75042;43.504;3.714;2024-01-30T11:54:29;12.60;85.60
84807;DHT22;75042;43.504;3.714;2024-01-30T11:56:54;12.50;86.60
84807;DHT22;75042;43.504;3.714;2024-01-30T11:59:20;12.40;86.50
84807;DHT22;75042;43.504;3.714;2024-01-30T12:01:46;12.50;86.00
84807;DHT22;75042;43.504;3.714;2024-01-30T12:04:11;12.40;86.40
84807;DHT22;75042;43.504;3.714;2024-01-30T12:06:37;12.40;87.00
84807;DHT22;75042;43.504;3.714;2024-01-30T12:09:03;12.20;89.20
84807;DHT22;75042;43.504;3.714;2024-01-30T12:11:44;12.30;89.80
84807;DHT22;75042;43.504;3.714;2024-01-30T12:14:11;12.40;89.00
84807;DHT22;75042;43.504;3.714;2024-01-30T12:16:37;12.50;88.50
84807;DHT22;75042;43.504;3.714;2024-01-30T12:19:02;12.20;89.40
84807;DHT22;75042;43.504;3.714;2024-01-30T12:21:28;12.30;90.00
84807;DHT22;75042;43.504;3.714;2024-01-30T12:23:54;12.30;88.90
84807;DHT22;75042;43.504;3.714;2024-01-30T12:26:19;12.40;88.90
84807;DHT22;75042;43.504;3.714;2024-01-30T12:28:48;12.40;88.90
84807;DHT22;75042;43.504;3.714;2024-01-30T12:31:15;12.20;89.20
84807;DHT22;75042;43.504;3.714;2024-01-30T12:33:40;12.40;89.30
84807;DHT22;75042;43.504;3.714;2024-01-30T12:36:06;12.50;88.70
84807;DHT22;75042;43.504;3.714;2024-01-30T12:38:32;12.60;88.10
84807;DHT22;75042;43.504;3.714;2024-01-30T12:40:58;12.50;88.70
84807;DHT22;75042;43.504;3.714;2024-01-30T12:43:23;12.50;88.60
84807;DHT22;75042;43.504;3.714;2024-01-30T12:45:50;12.40;89.00
84807;DHT22;75042;43.504;3.714;2024-01-30T12:48:15;12.40;89.80
84807;DHT22;75042;43.504;3.714;2024-01-30T12:50:41;12.40;90.00
84807;DHT22;75042;43.504;3.714;2024-01-30T12:53:07;12.50;89.30
84807;DHT22;75042;43.504;3.714;2024-01-30T12:55:32;12.60;89.10
84807;DHT22;75042;43.504;3.714;2024-01-30T12:57:58;12.70;89.20
84807;DHT22;75042;43.504;3.714;2024-01-30T13:00:23;12.70;88.50
84807;DHT22;75042;43.504;3.714;2024-01-30T13:02:49;12.70;89.10
84807;DHT22;75042;43.504;3.714;2024-01-30T13:05:14;12.70;88.60
84807;DHT22;75042;43.504;3.714;2024-01-30T13:07:40;12.90;88.20
84807;DHT22;75042;43.504;3.714;2024-01-30T13:10:06;12.90;88.40
84807;DHT22;75042;43.504;3.714;2024-01-30T13:12:31;12.90;87.90
84807;DHT22;75042;43.504;3.714;2024-01-30T13:14:58;12.80;88.10
84807;DHT22;75042;43.504;3.714;2024-01-30T13:17:26;12.80;89.10
84807;DHT22;75042;43.504;3.714;2024-01-30T13:19:52;12.80;88.70
84807;DHT22;75042;43.504;3.714;2024-01-30T13:22:19;12.80;87.80
84807;DHT22;75042;43.504;3.714;2024-01-30T13:24:47;12.80;87.20
84807;DHT22;75042;43.504;3.714;2024-01-30T13:27:12;12.80;87.40
84807;DHT22;75042;43.504;3.714;2024-01-30T13:29:38;12.80;87.20
84807;DHT22;75042;43.504;3.714;2024-01-30T13:32:03;12.80;87.60
84807;DHT22;75042;43.504;3.714;2024-01-30T13:34:29;13.00;86.50
84807;DHT22;75042;43.504;3.714;2024-01-30T13:36:54;12.90;86.70
84807;DHT22;75042;43.504;3.714;2024-01-30T13:39:20;12.90;86.90
84807;DHT22;75042;43.504;3.714;2024-01-30T13:41:46;13.00;86.40
84807;DHT22;75042;43.504;3.714;2024-01-30T13:44:11;13.00;86.10
84807;DHT22;75042;43.504;3.714;2024-01-30T13:46:37;13.10;85.90
84807;DHT22;75042;43.504;3.714;2024-01-30T13:49:04;13.00;85.20
84807;DHT22;75042;43.504;3.714;2024-01-30T13:51:29;12.90;86.10
84807;DHT22;75042;43.504;3.714;2024-01-30T13:53:55;12.90;87.20
84807;DHT22;75042;43.504;3.714;2024-01-30T13:56:20;13.10;86.60
84807;DHT22;75042;43.504;3.714;2024-01-30T13:58:49;13.10;87.00
84807;DHT22;75042;43.504;3.714;2024-01-30T14:01:18;12.90;86.50
84807;DHT22;75042;43.504;3.714;2024-01-30T14:03:43;12.80;85.50
84807;DHT22;75042;43.504;3.714;2024-01-30T14:06:09;12.90;85.30
84807;DHT22;75042;43.504;3.714;2024-01-30T14:08:35;13.00;85.10
84807;DHT22;75042;43.504;3.714;2024-01-30T14:11:00;13.20;84.00
84807;DHT22;75042;43.504;3.714;2024-01-30T14:13:26;13.20;84.20
84807;DHT22;75042;43.504;3.714;2024-01-30T14:15:51;13.10;85.30
84807;DHT22;75042;43.504;3.714;2024-01-30T14:18:18;13.10;86.00
84807;DHT22;75042;43.504;3.714;2024-01-30T14:20:43;13.00;85.10
84807;DHT22;75042;43.504;3.714;2024-01-30T14:23:09;13.00;83.30
84807;DHT22;75042;43.504;3.714;2024-01-30T14:25:34;12.90;82.60
84807;DHT22;75042;43.504;3.714;2024-01-30T14:28:01;12.80;83.50
84807;DHT22;75042;43.504;3.714;2024-01-30T14:30:26;12.80;83.60
84807;DHT22;75042;43.504;3.714;2024-01-30T14:32:52;12.90;83.50
84807;DHT22;75042;43.504;3.714;2024-01-30T14:35:17;12.90;85.50
84807;DHT22;75042;43.504;3.714;2024-01-30T14:37:44;12.90;83.60
84807;DHT22;75042;43.504;3.714;2024-01-30T14:40:10;13.00;82.80
84807;DHT22;75042;43.504;3.714;2024-01-30T14:42:35;13.00;83.40
84807;DHT22;75042;43.504;3.714;2024-01-30T14:45:06;13.00;83.00
84807;DHT22;75042;43.504;3.714;2024-01-30T14:47:31;13.00;82.40
84807;DHT22;75042;43.504;3.714;2024-01-30T14:49:57;13.00;83.50
84807;DHT22;75042;43.504;3.714;2024-01-30T14:52:23;12.90;83.90
84807;DHT22;75042;43.504;3.714;2024-01-30T14:54:48;12.90;85.20
84807;DHT22;75042;43.504;3.714;2024-01-30T14:57:14;12.70;86.20
84807;DHT22;75042;43.504;3.714;2024-01-30T14:59:40;12.80;85.20
84807;DHT22;75042;43.504;3.714;2024-01-30T15:02:05;12.80;85.60
84807;DHT22;75042;43.504;3.714;2024-01-30T15:04:31;12.70;84.90
84807;DHT22;75042;43.504;3.714;2024-01-30T15:06:56;12.70;84.10
84807;DHT22;75042;43.504;3.714;2024-01-30T15:09:22;12.80;84.20
84807;DHT22;75042;43.504;3.714;2024-01-30T15:11:48;12.80;84.40
84807;DHT22;75042;43.504;3.714;2024-01-30T15:14:14;12.80;84.20
84807;DHT22;75042;43.504;3.714;2024-01-30T15:16:40;12.80;84.80
84807;DHT22;75042;43.504;3.714;2024-01-30T15:19:05;12.70;85.40
84807;DHT22;75042;43.504;3.714;2024-01-30T15:21:31;12.70;85.70
84807;DHT22;75042;43.504;3.714;2024-01-30T15:23:57;12.70;85.90
84807;DHT22;75042;43.504;3.714;2024-01-30T15:26:22;12.70;85.70
84807;DHT22;75042;43.504;3.714;2024-01-30T15:28:48;12.70;86.10
84807;DHT22;75042;43.504;3.714;2024-01-30T15:31:13;12.70;85.50